Terminal Aerodrome Forecast
Issued by NWS

Home | Current Version | Previous Version | Text Only | Print | Product List | Glossary On
Versions: 1 2 3 4 5 6 7 8 9 10 11 12 13 14 15 16 17 18 19 20
000
FTUS43 KGRB 291100
TAFATW
TAF
KATW 291132Z 2912/3012 34007KT P6SM SCT100 BKN250
     FM291700 33009KT P6SM SCT025 BKN120
      TEMPO 2920/2924 BKN025
     FM300100 34007KT P6SM SCT030=

USA.gov is the U.S. government's official web portal to all federal, state and local government web resources and services.